Aviation Digital Data Service (ADDS)

Output produced by METARs form (1109 UTC 26 July 2014)
found at http://aviationweather.gov/adds/metars/
 
KSSI 260629Z 2606/2706 24006KT P6SM SCT040 
     FM261700 19009KT P6SM FEW030 SCT250